Time;durP1;ratioP1;P1;durP2;ratioP2;P2;SDS_P1;SDS_P2;PMS_P1;PMS_P2;Temp;Humidity;BMP_temperature;BMP_pressure;BME280_temperature;BME280_humidity;BME280_pressure;Samples;Min_cycle;Max_cycle;Signal;HPM_P1;HPM_P2
2022/03/19 00:01:06;;;;;;;88.05;42.72;;;;;;;;;;4992796;28;20210;-82
2022/03/19 00:03:33;;;;;;;83.88;40.58;;;;;;;;;;4992565;28;20609;-81
2022/03/19 00:06:02;;;;;;;73.18;38.80;;;;;;;;;;4974280;28;20077;-84
2022/03/19 00:08:29;;;;;;;78.70;40.40;;;;;;;;;;4992597;28;20050;-81
2022/03/19 00:10:56;;;;;;;81.53;41.15;;;;;;;;;;4978052;28;20105;-82
2022/03/19 00:13:23;;;;;;;78.82;39.40;;;;;;;;;;4997357;28;20097;-81
2022/03/19 00:15:51;;;;;;;83.35;40.33;;;;;;;;;;4994920;28;20099;-81
2022/03/19 00:18:20;;;;;;;89.25;41.38;;;;;;;;;;4981072;28;20046;-81
2022/03/19 00:20:47;;;;;;;77.72;38.45;;;;;;;;;;4998297;28;20042;-81
2022/03/19 00:23:15;;;;;;;79.93;40.88;;;;;;;;;;5000007;28;20085;-81
2022/03/19 00:25:43;;;;;;;82.07;40.00;;;;;;;;;;4987189;28;20062;-81
2022/03/19 00:28:09;;;;;;;82.55;41.78;;;;;;;;;;4981574;28;20038;-81
2022/03/19 00:30:37;;;;;;;83.53;41.33;;;;;;;;;;4997542;28;20074;-81
2022/03/19 00:33:05;;;;;;;84.88;41.47;;;;;;;;;;4997624;28;20108;-81
2022/03/19 00:35:34;;;;;;;88.25;40.67;;;;;;;;;;4989285;28;20451;-81
2022/03/19 00:38:01;;;;;;;80.13;40.58;;;;;;;;;;5016908;28;20081;-81
2022/03/19 00:40:28;;;;;;;89.55;42.88;;;;;;;;;;4974440;28;20094;-81
2022/03/19 00:42:56;;;;;;;81.32;39.70;;;;;;;;;;4976886;28;20038;-81
2022/03/19 00:45:31;;;;;;;83.68;40.45;;;;;;;;;;4995571;28;20050;-81
2022/03/19 00:47:59;;;;;;;83.97;42.72;;;;;;;;;;4981720;28;20049;-84
2022/03/19 00:50:27;;;;;;;79.03;39.05;;;;;;;;;;4980254;28;20456;-81
2022/03/19 00:52:57;;;;;;;76.18;37.50;;;;;;;;;;4997026;28;20050;-81
2022/03/19 00:55:24;;;;;;;80.03;41.15;;;;;;;;;;4996274;28;20065;-81
2022/03/19 00:57:51;;;;;;;79.72;39.78;;;;;;;;;;4979799;28;20094;-81
2022/03/19 01:00:25;;;;;;;79.22;37.10;;;;;;;;;;4994444;28;20038;-81
2022/03/19 01:02:53;;;;;;;79.60;39.45;;;;;;;;;;4996289;28;20042;-81
2022/03/19 01:05:20;;;;;;;71.18;37.15;;;;;;;;;;4996641;28;20062;-81
2022/03/19 01:07:51;;;;;;;76.25;37.35;;;;;;;;;;4979392;28;20049;-81
2022/03/19 01:10:22;;;;;;;83.95;39.60;;;;;;;;;;4996904;28;20043;-81
2022/03/19 01:12:49;;;;;;;73.55;36.15;;;;;;;;;;4997791;28;20385;-82
2022/03/19 01:15:16;;;;;;;75.40;36.55;;;;;;;;;;4979796;28;20479;-81
2022/03/19 01:17:45;;;;;;;77.20;39.95;;;;;;;;;;5000326;28;20074;-82
2022/03/19 01:20:13;;;;;;;78.45;37.60;;;;;;;;;;5001486;28;20043;-82
2022/03/19 01:22:40;;;;;;;78.75;39.22;;;;;;;;;;4998841;28;20452;-81
2022/03/19 01:25:09;;;;;;;74.15;36.90;;;;;;;;;;5001701;28;20096;-81
2022/03/19 01:27:40;;;;;;;79.90;37.20;;;;;;;;;;4999192;28;20125;-81
2022/03/19 01:30:11;;;;;;;75.10;38.92;;;;;;;;;;5021517;28;20049;-81
2022/03/19 01:32:38;;;;;;;68.13;34.17;;;;;;;;;;5020853;28;20046;-81
2022/03/19 01:35:09;;;;;;;77.68;35.95;;;;;;;;;;4972609;28;20039;-81
2022/03/19 01:37:36;;;;;;;72.22;35.13;;;;;;;;;;5000145;28;20101;-81
2022/03/19 01:40:04;;;;;;;76.03;37.05;;;;;;;;;;5000978;28;20042;-81
2022/03/19 01:42:33;;;;;;;71.10;35.83;;;;;;;;;;5000217;28;20043;-81
2022/03/19 01:45:04;;;;;;;73.93;35.50;;;;;;;;;;4982781;28;20077;-82
2022/03/19 01:47:31;;;;;;;65.75;33.05;;;;;;;;;;5000178;28;20042;-81
2022/03/19 01:49:59;;;;;;;68.32;34.90;;;;;;;;;;4999991;28;20066;-81
2022/03/19 01:52:28;;;;;;;69.60;35.00;;;;;;;;;;5000434;28;20104;-81
2022/03/19 01:54:56;;;;;;;90.07;36.97;;;;;;;;;;5000393;28;20050;-81
2022/03/19 01:57:25;;;;;;;71.47;34.95;;;;;;;;;;4983303;28;20046;-81
2022/03/19 01:59:53;;;;;;;69.65;33.28;;;;;;;;;;5000683;28;20070;-81
2022/03/19 02:02:25;;;;;;;67.78;34.13;;;;;;;;;;4999656;28;20081;-81
2022/03/19 02:04:53;;;;;;;67.88;32.75;;;;;;;;;;4999772;28;20100;-81
2022/03/19 02:07:22;;;;;;;64.50;32.67;;;;;;;;;;5000710;28;20121;-81
2022/03/19 02:09:49;;;;;;;62.22;33.58;;;;;;;;;;4998418;28;20046;-83
2022/03/19 02:12:17;;;;;;;66.75;31.52;;;;;;;;;;4982422;28;20050;-81
2022/03/19 02:14:47;;;;;;;61.88;31.10;;;;;;;;;;4999184;28;20077;-83
2022/03/19 02:17:14;;;;;;;61.90;31.15;;;;;;;;;;4999592;28;20125;-82
2022/03/19 02:19:51;;;;;;;59.88;31.15;;;;;;;;;;4980406;28;20364;-81
2022/03/19 02:22:19;;;;;;;66.25;32.22;;;;;;;;;;4999325;28;20077;-81
2022/03/19 02:27:33;;;;;;;;;;;;;;;;;;4999483;28;20054;-81
2022/03/19 02:30:00;;;;;;;59.95;30.67;;;;;;;;;;4998237;28;19980;-81
2022/03/19 02:32:28;;;;;;;59.15;30.40;;;;;;;;;;4982533;28;20058;-81
2022/03/19 02:34:55;;;;;;;67.53;31.30;;;;;;;;;;4981436;28;20050;-81
2022/03/19 02:37:22;;;;;;;58.28;29.55;;;;;;;;;;4999357;28;20065;-83
2022/03/19 02:39:52;;;;;;;55.63;29.02;;;;;;;;;;4999499;28;20074;-81
2022/03/19 02:42:20;;;;;;;58.55;29.63;;;;;;;;;;4997526;28;20391;-81
2022/03/19 02:44:49;;;;;;;59.42;29.25;;;;;;;;;;4981310;28;20054;-81
2022/03/19 02:47:17;;;;;;;58.72;28.98;;;;;;;;;;4997289;28;20046;-81
2022/03/19 02:49:44;;;;;;;50.97;26.80;;;;;;;;;;4999094;28;20073;-81
2022/03/19 02:52:16;;;;;;;49.38;28.23;;;;;;;;;;4999759;28;20150;-81
2022/03/19 02:54:46;;;;;;;54.58;27.50;;;;;;;;;;4995607;28;20561;-82
2022/03/19 02:57:16;;;;;;;49.92;26.42;;;;;;;;;;4995905;28;20046;-82
2022/03/19 02:59:43;;;;;;;52.83;28.58;;;;;;;;;;4964314;28;20456;-82
2022/03/19 03:02:10;;;;;;;55.05;27.88;;;;;;;;;;4965588;28;20107;-82
2022/03/19 03:04:38;;;;;;;54.70;24.63;;;;;;;;;;4981630;28;20419;-82
2022/03/19 03:07:05;;;;;;;54.65;26.52;;;;;;;;;;4981410;28;20050;-82
2022/03/19 03:09:33;;;;;;;51.60;25.58;;;;;;;;;;4999243;28;20456;-82
2022/03/19 03:12:02;;;;;;;51.72;26.58;;;;;;;;;;4999640;28;20047;-82
2022/03/19 03:14:33;;;;;;;45.20;24.88;;;;;;;;;;4981511;28;20472;-82
2022/03/19 03:17:03;;;;;;;51.55;26.10;;;;;;;;;;4998627;28;20411;-82
2022/03/19 03:19:32;;;;;;;48.00;25.70;;;;;;;;;;4998731;28;20081;-82
2022/03/19 03:21:59;;;;;;;51.40;26.10;;;;;;;;;;4998390;28;20042;-82
2022/03/19 03:24:29;;;;;;;42.92;23.17;;;;;;;;;;4979915;28;20398;-82
2022/03/19 03:26:58;;;;;;;46.40;23.80;;;;;;;;;;4978980;28;20046;-82
2022/03/19 03:29:26;;;;;;;51.45;24.65;;;;;;;;;;4997757;28;20105;-82
2022/03/19 03:31:55;;;;;;;48.22;25.98;;;;;;;;;;4980367;28;20047;-82
2022/03/19 03:34:23;;;;;;;50.42;23.90;;;;;;;;;;4979602;28;20376;-82
2022/03/19 03:36:50;;;;;;;50.28;24.00;;;;;;;;;;4996868;28;20065;-82
2022/03/19 03:39:17;;;;;;;46.58;24.02;;;;;;;;;;4997433;28;20073;-82
2022/03/19 03:41:44;;;;;;;50.97;25.73;;;;;;;;;;4997891;28;20074;-82
2022/03/19 03:44:12;;;;;;;49.55;24.50;;;;;;;;;;4996743;28;20092;-82
2022/03/19 03:46:39;;;;;;;49.22;24.35;;;;;;;;;;4997121;28;20108;-82
2022/03/19 03:49:08;;;;;;;46.38;26.15;;;;;;;;;;4998290;28;20092;-82
2022/03/19 03:51:37;;;;;;;49.42;24.85;;;;;;;;;;5011519;28;20041;-82
2022/03/19 03:54:05;;;;;;;47.42;23.90;;;;;;;;;;4999835;28;20555;-82
2022/03/19 03:56:33;;;;;;;43.53;23.45;;;;;;;;;;5015059;28;20038;-82
2022/03/19 03:59:00;;;;;;;47.70;24.25;;;;;;;;;;5000180;28;20375;-82
2022/03/19 04:01:27;;;;;;;49.55;23.85;;;;;;;;;;5017498;28;20430;-81
2022/03/19 04:03:54;;;;;;;47.15;23.77;;;;;;;;;;5016842;28;20136;-82
2022/03/19 04:06:24;;;;;;;50.53;25.48;;;;;;;;;;4999440;28;20049;-81
2022/03/19 04:08:51;;;;;;;47.30;25.13;;;;;;;;;;5015684;28;20042;-82
2022/03/19 04:11:18;;;;;;;46.35;23.67;;;;;;;;;;4998772;28;20073;-82
2022/03/19 04:13:45;;;;;;;49.03;25.75;;;;;;;;;;4999226;28;20081;-81
2022/03/19 04:16:12;;;;;;;46.75;23.00;;;;;;;;;;5015718;28;20065;-81
2022/03/19 04:18:41;;;;;;;47.10;23.45;;;;;;;;;;4999826;28;20045;-81
2022/03/19 04:21:08;;;;;;;46.38;23.73;;;;;;;;;;4999398;28;20511;-81
2022/03/19 04:23:37;;;;;;;45.00;23.67;;;;;;;;;;4983560;28;20386;-81
2022/03/19 04:26:05;;;;;;;42.75;22.88;;;;;;;;;;5015852;28;20038;-83
2022/03/19 04:28:31;;;;;;;46.53;24.05;;;;;;;;;;4998570;28;20073;-81
2022/03/19 04:30:58;;;;;;;39.95;22.05;;;;;;;;;;4999211;28;20053;-81
2022/03/19 04:33:25;;;;;;;50.40;23.73;;;;;;;;;;4979183;28;20100;-81
2022/03/19 04:38:32;;;;;;;39.35;21.13;;;;;;;;;;4997373;28;20042;-81
2022/03/19 04:41:02;;;;;;;38.95;21.83;;;;;;;;;;4980443;28;20076;-81
2022/03/19 04:43:30;;;;;;;39.10;20.33;;;;;;;;;;4997493;28;20154;-81
2022/03/19 04:45:57;;;;;;;45.58;21.17;;;;;;;;;;4981326;28;20081;-81
2022/03/19 04:48:24;;;;;;;43.45;20.92;;;;;;;;;;4998978;28;20053;-81
2022/03/19 04:50:52;;;;;;;43.40;21.48;;;;;;;;;;4981193;28;20475;-83
2022/03/19 04:53:20;;;;;;;37.20;19.70;;;;;;;;;;4984219;28;20042;-83
2022/03/19 04:55:49;;;;;;;42.03;20.42;;;;;;;;;;5002222;28;20387;-82
2022/03/19 04:58:20;;;;;;;39.70;20.60;;;;;;;;;;5001481;28;20128;-82
2022/03/19 05:00:50;;;;;;;37.67;19.60;;;;;;;;;;4968666;28;20050;-82
2022/03/19 05:03:17;;;;;;;38.47;19.65;;;;;;;;;;4968486;28;20052;-82
2022/03/19 05:05:44;;;;;;;39.63;20.45;;;;;;;;;;5000555;28;20050;-82
2022/03/19 05:08:12;;;;;;;44.05;22.98;;;;;;;;;;5000353;28;20070;-82
2022/03/19 05:13:25;;;;;;;41.17;20.60;;;;;;;;;;5001546;28;20053;-82
2022/03/19 05:15:52;;;;;;;38.08;19.90;;;;;;;;;;5002678;28;20047;-82
2022/03/19 05:18:19;;;;;;;39.88;21.15;;;;;;;;;;4984109;28;20073;-82
2022/03/19 05:20:46;;;;;;;48.80;22.33;;;;;;;;;;4985518;28;20050;-82
2022/03/19 05:23:13;;;;;;;36.67;19.70;;;;;;;;;;5001411;28;20074;-82
2022/03/19 05:25:41;;;;;;;40.63;20.00;;;;;;;;;;4985529;28;20100;-82
2022/03/19 05:28:08;;;;;;;43.72;19.83;;;;;;;;;;4966484;28;20142;-82
2022/03/19 05:30:40;;;;;;;37.53;19.65;;;;;;;;;;5001520;28;20054;-82
2022/03/19 05:33:08;;;;;;;37.70;21.10;;;;;;;;;;4983169;28;20050;-83
2022/03/19 05:35:38;;;;;;;42.80;21.27;;;;;;;;;;4983950;28;20104;-82
2022/03/19 05:38:06;;;;;;;36.83;18.85;;;;;;;;;;5002113;28;20100;-82
2022/03/19 05:40:34;;;;;;;43.25;21.48;;;;;;;;;;4983442;28;20039;-82
2022/03/19 05:43:01;;;;;;;40.42;19.20;;;;;;;;;;4981942;28;20042;-82
2022/03/19 05:45:29;;;;;;;41.50;21.48;;;;;;;;;;4980079;28;20380;-82
2022/03/19 05:47:58;;;;;;;39.75;21.77;;;;;;;;;;4982360;28;20064;-82
2022/03/19 05:50:26;;;;;;;39.80;20.52;;;;;;;;;;5020644;28;20072;-82
2022/03/19 05:52:54;;;;;;;46.45;22.10;;;;;;;;;;5023166;28;20085;-82
2022/03/19 05:55:23;;;;;;;42.70;21.00;;;;;;;;;;5003703;28;20042;-82
2022/03/19 05:57:51;;;;;;;43.90;20.88;;;;;;;;;;5004764;28;20076;-82
2022/03/19 06:00:18;;;;;;;43.08;23.42;;;;;;;;;;4987603;28;20050;-82
2022/03/19 06:02:46;;;;;;;42.10;20.85;;;;;;;;;;4968473;28;20111;-81
2022/03/19 06:05:15;;;;;;;38.10;22.27;;;;;;;;;;4983314;28;20101;-82
2022/03/19 06:07:42;;;;;;;40.95;22.60;;;;;;;;;;4962439;28;20050;-81
2022/03/19 06:10:12;;;;;;;42.20;21.17;;;;;;;;;;4961467;28;20539;-82
2022/03/19 06:12:40;;;;;;;46.60;21.20;;;;;;;;;;4961453;28;20077;-82
2022/03/19 06:15:11;;;;;;;41.30;21.83;;;;;;;;;;4962767;28;20046;-82
2022/03/19 06:17:38;;;;;;;42.20;22.17;;;;;;;;;;4961457;28;20081;-81
2022/03/19 06:20:06;;;;;;;47.70;25.25;;;;;;;;;;4979343;28;20074;-81
2022/03/19 06:22:35;;;;;;;43.25;22.38;;;;;;;;;;4961416;28;20074;-81
2022/03/19 06:25:05;;;;;;;39.10;21.75;;;;;;;;;;4978532;28;20078;-82
2022/03/19 06:27:32;;;;;;;44.88;24.13;;;;;;;;;;4989225;28;20043;-82
2022/03/19 06:29:59;;;;;;;45.03;23.48;;;;;;;;;;4997632;28;20101;-83
2022/03/19 06:32:26;;;;;;;51.45;24.20;;;;;;;;;;4981354;28;20101;-83
2022/03/19 06:34:53;;;;;;;48.20;25.85;;;;;;;;;;4998262;28;20065;-83
2022/03/19 06:37:19;;;;;;;43.00;22.17;;;;;;;;;;4997529;28;20069;-83
2022/03/19 06:39:48;;;;;;;44.40;23.77;;;;;;;;;;4964564;28;20089;-82
2022/03/19 06:42:16;;;;;;;48.72;24.60;;;;;;;;;;4997897;28;20061;-82
2022/03/19 06:44:43;;;;;;;47.17;23.83;;;;;;;;;;4997225;28;20038;-82
2022/03/19 06:47:10;;;;;;;41.70;22.77;;;;;;;;;;4995447;28;20479;-82
2022/03/19 06:49:37;;;;;;;43.72;21.25;;;;;;;;;;5016772;28;20042;-82
2022/03/19 06:52:05;;;;;;;49.50;24.33;;;;;;;;;;4970504;28;20105;-82
2022/03/19 06:54:35;;;;;;;46.10;24.38;;;;;;;;;;4998005;28;20085;-82
2022/03/19 06:57:05;;;;;;;41.97;22.73;;;;;;;;;;4981387;28;20427;-82
2022/03/19 06:59:34;;;;;;;45.40;22.85;;;;;;;;;;4997334;28;20046;-82
2022/03/19 07:02:02;;;;;;;40.35;24.33;;;;;;;;;;4978772;28;20683;-82
2022/03/19 07:04:29;;;;;;;41.30;20.98;;;;;;;;;;4965130;28;20066;-83
2022/03/19 07:06:56;;;;;;;39.28;21.58;;;;;;;;;;4980855;28;20169;-82
2022/03/19 07:09:24;;;;;;;40.40;20.88;;;;;;;;;;4980263;28;20103;-83
2022/03/19 07:11:51;;;;;;;40.35;20.75;;;;;;;;;;4997492;28;20129;-83
2022/03/19 07:14:22;;;;;;;40.08;19.58;;;;;;;;;;4997226;28;20078;-83
2022/03/19 07:16:49;;;;;;;39.22;19.83;;;;;;;;;;4997773;28;20047;-83
2022/03/19 07:19:17;;;;;;;39.75;21.50;;;;;;;;;;4996887;28;20046;-82
2022/03/19 07:21:44;;;;;;;36.97;20.98;;;;;;;;;;4963356;28;20056;-82
2022/03/19 07:24:11;;;;;;;40.85;20.90;;;;;;;;;;4981212;28;20042;-83
2022/03/19 07:26:45;;;;;;;41.40;20.55;;;;;;;;;;4996932;28;20070;-82
2022/03/19 07:29:15;;;;;;;37.95;22.40;;;;;;;;;;4998884;28;20412;-83
2022/03/19 07:31:44;;;;;;;39.83;21.13;;;;;;;;;;4997522;28;20546;-82
2022/03/19 07:34:11;;;;;;;38.88;21.92;;;;;;;;;;4964579;28;20042;-83
2022/03/19 07:36:38;;;;;;;37.70;20.58;;;;;;;;;;4998023;28;20097;-83
2022/03/19 07:39:05;;;;;;;37.85;20.30;;;;;;;;;;4980452;28;20371;-83
2022/03/19 07:41:48;;;;;;;36.15;20.27;;;;;;;;;;4996766;28;20038;-83
2022/03/19 07:44:16;;;;;;;40.35;20.38;;;;;;;;;;4983147;28;20125;-82
2022/03/19 07:46:45;;;;;;;38.22;20.00;;;;;;;;;;4961438;28;20057;-83
2022/03/19 07:49:15;;;;;;;36.88;19.48;;;;;;;;;;4977269;28;20089;-82
2022/03/19 07:51:42;;;;;;;33.67;19.83;;;;;;;;;;4978683;28;20050;-81
2022/03/19 07:54:09;;;;;;;33.78;19.30;;;;;;;;;;4963156;28;20101;-84
2022/03/19 07:56:37;;;;;;;35.95;19.45;;;;;;;;;;4977488;28;20042;-85
2022/03/19 07:59:04;;;;;;;38.42;20.08;;;;;;;;;;4947437;28;20047;-84
2022/03/19 08:01:32;;;;;;;32.28;19.73;;;;;;;;;;4949001;28;20043;-84
2022/03/19 08:04:00;;;;;;;38.20;21.25;;;;;;;;;;4962942;28;20094;-82
2022/03/19 08:06:30;;;;;;;43.67;20.60;;;;;;;;;;4979079;28;20086;-83
2022/03/19 08:08:58;;;;;;;39.65;20.95;;;;;;;;;;4982806;28;20113;-83
2022/03/19 08:11:25;;;;;;;37.95;20.10;;;;;;;;;;4979482;28;20047;-84
2022/03/19 08:13:52;;;;;;;37.78;20.00;;;;;;;;;;4961586;28;20522;-82
2022/03/19 08:16:20;;;;;;;34.10;19.33;;;;;;;;;;4961562;28;20097;-82
2022/03/19 08:18:47;;;;;;;35.70;19.70;;;;;;;;;;4962168;28;20043;-81
2022/03/19 08:21:15;;;;;;;33.80;19.65;;;;;;;;;;4944207;28;20074;-79
2022/03/19 08:23:42;;;;;;;33.17;20.13;;;;;;;;;;4977461;28;20075;-80
2022/03/19 08:26:10;;;;;;;35.67;20.33;;;;;;;;;;4978459;28;20078;-81
2022/03/19 08:28:37;;;;;;;35.67;20.30;;;;;;;;;;4983882;28;20050;-81
2022/03/19 08:31:04;;;;;;;32.85;19.50;;;;;;;;;;4985414;28;20047;-82
2022/03/19 08:33:31;;;;;;;33.78;18.27;;;;;;;;;;4981835;28;20073;-82
2022/03/19 08:35:58;;;;;;;33.17;19.90;;;;;;;;;;4988218;28;20050;-80
2022/03/19 08:41:10;;;;;;;31.38;18.83;;;;;;;;;;5005242;28;20052;-80
2022/03/19 08:43:37;;;;;;;33.33;19.25;;;;;;;;;;5003731;28;20050;-82
2022/03/19 08:46:04;;;;;;;29.88;18.40;;;;;;;;;;4985838;28;20146;-80
2022/03/19 08:48:30;;;;;;;33.03;19.92;;;;;;;;;;5008942;28;20046;-79
2022/03/19 08:51:39;;;;;;;33.05;17.75;;;;;;;;;;5001087;28;20469;-81
2022/03/19 08:53:47;;;;;;;29.02;16.95;;;;;;;;;;5022443;28;20124;-80
2022/03/19 08:56:14;;;;;;;28.58;17.42;;;;;;;;;;5021599;28;20506;-80
2022/03/19 08:58:41;;;;;;;26.83;16.35;;;;;;;;;;5001875;28;20493;-80
2022/03/19 09:01:08;;;;;;;26.48;15.65;;;;;;;;;;4982487;28;20046;-80
2022/03/19 09:03:35;;;;;;;27.80;15.73;;;;;;;;;;4984937;28;20089;-79
2022/03/19 09:06:02;;;;;;;23.98;15.77;;;;;;;;;;5005217;28;20084;-83
2022/03/19 09:08:29;;;;;;;29.45;16.08;;;;;;;;;;5002410;28;20046;-81
2022/03/19 09:10:58;;;;;;;24.85;16.17;;;;;;;;;;4983224;28;20085;-81
2022/03/19 09:13:25;;;;;;;25.67;15.35;;;;;;;;;;4999560;28;20427;-80
2022/03/19 09:15:54;;;;;;;24.20;14.80;;;;;;;;;;4999619;28;20077;-80
2022/03/19 09:18:21;;;;;;;26.67;16.70;;;;;;;;;;4999321;28;20070;-80
2022/03/19 09:20:48;;;;;;;28.52;16.38;;;;;;;;;;4999391;28;20049;-80
2022/03/19 09:23:16;;;;;;;27.05;15.75;;;;;;;;;;4998235;28;20042;-80
2022/03/19 09:25:43;;;;;;;24.38;14.13;;;;;;;;;;4981950;28;20097;-80
2022/03/19 09:28:17;;;;;;;25.65;15.43;;;;;;;;;;4999273;28;20097;-80
2022/03/19 09:30:45;;;;;;;24.20;15.40;;;;;;;;;;4998934;28;20372;-80
2022/03/19 09:33:12;;;;;;;25.08;14.55;;;;;;;;;;4998909;28;20059;-80
2022/03/19 09:35:38;;;;;;;24.08;14.65;;;;;;;;;;5000935;28;20050;-80
2022/03/19 09:38:06;;;;;;;25.73;14.85;;;;;;;;;;4981799;28;20046;-80
2022/03/19 09:40:32;;;;;;;27.25;16.13;;;;;;;;;;4983870;28;20148;-79
2022/03/19 09:42:59;;;;;;;22.15;14.45;;;;;;;;;;5001818;28;20042;-79
2022/03/19 09:45:39;;;;;;;26.58;17.05;;;;;;;;;;5001005;28;20085;-79
2022/03/19 09:48:07;;;;;;;27.77;15.65;;;;;;;;;;5001021;28;20046;-79
2022/03/19 09:50:35;;;;;;;22.70;13.98;;;;;;;;;;4982289;28;20061;-80
2022/03/19 09:53:04;;;;;;;23.95;14.90;;;;;;;;;;4983682;28;20049;-79
2022/03/19 09:55:32;;;;;;;23.85;15.20;;;;;;;;;;5020819;28;20090;-79
2022/03/19 09:58:00;;;;;;;28.88;16.30;;;;;;;;;;4986889;28;20045;-79
2022/03/19 10:00:27;;;;;;;24.98;16.35;;;;;;;;;;5021805;28;20042;-80
2022/03/19 10:03:01;;;;;;;25.02;15.52;;;;;;;;;;5002854;28;20056;-80
2022/03/19 10:08:39;;;;;;;22.02;14.55;;;;;;;;;;5003294;28;20053;-80
2022/03/19 10:11:12;;;;;;;24.92;15.60;;;;;;;;;;5000245;28;20398;-81
2022/03/19 10:13:40;;;;;;;25.75;16.42;;;;;;;;;;5004382;28;20116;-80
2022/03/19 10:16:07;;;;;;;27.70;16.25;;;;;;;;;;5021648;28;20077;-81
2022/03/19 10:18:37;;;;;;;28.05;16.90;;;;;;;;;;5021576;28;20046;-80
2022/03/19 10:21:14;;;;;;;27.15;16.02;;;;;;;;;;5020962;28;20092;-80
2022/03/19 10:23:42;;;;;;;31.48;17.13;;;;;;;;;;5020401;28;20104;-80
2022/03/19 10:26:09;;;;;;;31.10;18.00;;;;;;;;;;5020385;28;20048;-80
2022/03/19 10:28:37;;;;;;;35.42;19.30;;;;;;;;;;5020758;28;20069;-80
2022/03/19 10:31:04;;;;;;;26.73;16.23;;;;;;;;;;5020658;28;20048;-80
2022/03/19 10:33:31;;;;;;;29.08;16.75;;;;;;;;;;5006648;28;20082;-80
2022/03/19 10:36:13;;;;;;;26.33;16.70;;;;;;;;;;5000594;28;20082;-80
2022/03/19 10:38:44;;;;;;;27.98;17.88;;;;;;;;;;5000831;28;20125;-81
2022/03/19 10:41:11;;;;;;;28.33;18.35;;;;;;;;;;5002071;28;20045;-80
2022/03/19 10:43:41;;;;;;;25.58;16.50;;;;;;;;;;4999354;28;20047;-80
2022/03/19 10:46:07;;;;;;;29.33;17.58;;;;;;;;;;4983239;28;20136;-79
2022/03/19 10:48:34;;;;;;;27.80;17.38;;;;;;;;;;5001507;28;20133;-79
2022/03/19 10:51:01;;;;;;;28.25;16.23;;;;;;;;;;5000776;28;20073;-79
2022/03/19 10:53:29;;;;;;;26.38;15.05;;;;;;;;;;5000606;28;20046;-79
2022/03/19 10:56:06;;;;;;;24.00;15.38;;;;;;;;;;5001354;28;20042;-79
2022/03/19 10:58:33;;;;;;;28.98;16.52;;;;;;;;;;5000399;28;20060;-79
2022/03/19 11:01:01;;;;;;;25.58;17.05;;;;;;;;;;4986929;28;20079;-80
2022/03/19 11:03:29;;;;;;;27.98;17.05;;;;;;;;;;4982313;28;20081;-80
2022/03/19 11:05:57;;;;;;;27.13;16.33;;;;;;;;;;4983698;28;20475;-79
2022/03/19 11:08:24;;;;;;;27.67;15.90;;;;;;;;;;4998848;28;20447;-79
2022/03/19 11:10:54;;;;;;;27.48;16.48;;;;;;;;;;4998469;28;20066;-79
2022/03/19 11:13:22;;;;;;;21.95;15.43;;;;;;;;;;4997819;28;20049;-79
2022/03/19 11:15:51;;;;;;;27.60;17.48;;;;;;;;;;4996782;28;20078;-79
2022/03/19 11:18:20;;;;;;;25.70;17.38;;;;;;;;;;4995326;28;20070;-80
2022/03/19 11:20:46;;;;;;;24.92;16.83;;;;;;;;;;4993868;28;20045;-79
2022/03/19 11:23:15;;;;;;;24.73;16.70;;;;;;;;;;4999070;28;20077;-79
2022/03/19 11:25:46;;;;;;;27.45;17.48;;;;;;;;;;4987846;28;20096;-80
2022/03/19 11:28:15;;;;;;;27.95;17.67;;;;;;;;;;4994807;28;20053;-80
2022/03/19 11:30:42;;;;;;;27.05;17.40;;;;;;;;;;4997027;28;20043;-79
2022/03/19 11:33:11;;;;;;;23.00;15.93;;;;;;;;;;5000200;28;20078;-81
2022/03/19 11:35:39;;;;;;;27.52;15.55;;;;;;;;;;5000433;28;20050;-80
2022/03/19 11:38:11;;;;;;;29.77;17.30;;;;;;;;;;4983361;28;20042;-80
2022/03/19 11:40:38;;;;;;;24.33;16.33;;;;;;;;;;4980943;28;20042;-80
2022/03/19 11:43:06;;;;;;;27.17;17.50;;;;;;;;;;4980683;28;20077;-80
2022/03/19 11:46:00;;;;;;;28.90;17.65;;;;;;;;;;4981822;28;20480;-80
2022/03/19 11:48:50;;;;;;;26.52;15.85;;;;;;;;;;5020284;28;20041;-80
2022/03/19 11:51:22;;;;;;;24.85;16.08;;;;;;;;;;5019591;28;20120;-80
2022/03/19 11:53:53;;;;;;;25.27;16.25;;;;;;;;;;5017546;28;20088;-80
2022/03/19 11:56:19;;;;;;;24.10;15.73;;;;;;;;;;5019456;28;20049;-81
2022/03/19 11:58:46;;;;;;;26.90;16.58;;;;;;;;;;5014799;28;20442;-78
2022/03/19 12:01:15;;;;;;;23.92;16.27;;;;;;;;;;5015683;28;20080;-78
2022/03/19 12:04:11;;;;;;;24.27;16.67;;;;;;;;;;4997007;28;20042;-81
2022/03/19 12:06:39;;;;;;;26.65;15.57;;;;;;;;;;4996144;28;20085;-77
2022/03/19 12:09:06;;;;;;;22.90;15.32;;;;;;;;;;4995491;28;20538;-78
2022/03/19 12:11:35;;;;;;;24.33;15.48;;;;;;;;;;4995414;28;20074;-78
2022/03/19 12:14:08;;;;;;;27.35;16.10;;;;;;;;;;4995360;28;20042;-78
2022/03/19 12:16:41;;;;;;;25.27;15.80;;;;;;;;;;4996649;28;20089;-77
2022/03/19 12:19:08;;;;;;;21.65;15.27;;;;;;;;;;4995085;28;20081;-80
2022/03/19 12:21:36;;;;;;;23.20;15.07;;;;;;;;;;4999324;28;20101;-80
2022/03/19 12:24:19;;;;;;;24.85;14.95;;;;;;;;;;5000155;28;20074;-80
2022/03/19 12:26:49;;;;;;;28.27;16.17;;;;;;;;;;4999345;28;20061;-82
2022/03/19 12:29:17;;;;;;;23.73;16.30;;;;;;;;;;4997443;28;20090;-81
2022/03/19 12:31:47;;;;;;;23.23;13.65;;;;;;;;;;4996161;28;20046;-81
2022/03/19 12:34:15;;;;;;;23.58;14.85;;;;;;;;;;4995169;28;20170;-81
2022/03/19 12:36:42;;;;;;;21.55;14.18;;;;;;;;;;4995184;28;20134;-80
2022/03/19 12:39:08;;;;;;;19.65;13.23;;;;;;;;;;4994397;28;20057;-80
2022/03/19 12:41:35;;;;;;;23.90;13.40;;;;;;;;;;4997066;28;20069;-79
2022/03/19 12:44:03;;;;;;;21.13;14.63;;;;;;;;;;4992425;28;20153;-79
2022/03/19 12:46:31;;;;;;;17.45;13.15;;;;;;;;;;4991462;28;20356;-77
2022/03/19 12:49:07;;;;;;;18.88;13.05;;;;;;;;;;4992944;28;20145;-78
2022/03/19 12:51:36;;;;;;;20.77;14.00;;;;;;;;;;4993968;28;20086;-78
2022/03/19 12:54:16;;;;;;;21.08;14.43;;;;;;;;;;4991534;28;20475;-77
2022/03/19 12:56:43;;;;;;;22.00;14.00;;;;;;;;;;4995223;28;20133;-78
2022/03/19 12:59:16;;;;;;;17.38;13.20;;;;;;;;;;4993963;28;20078;-77
2022/03/19 13:01:43;;;;;;;21.10;13.55;;;;;;;;;;4994777;28;20034;-78
2022/03/19 13:04:19;;;;;;;23.17;14.23;;;;;;;;;;4994607;28;20137;-78
2022/03/19 13:06:45;;;;;;;22.88;13.95;;;;;;;;;;5001258;28;20376;-77
2022/03/19 13:09:12;;;;;;;19.77;14.23;;;;;;;;;;4999859;28;20129;-78
2022/03/19 13:11:42;;;;;;;19.92;13.93;;;;;;;;;;4993676;28;20100;-77
2022/03/19 13:14:12;;;;;;;21.17;14.23;;;;;;;;;;4999692;28;20454;-78
2022/03/19 13:16:38;;;;;;;21.45;12.88;;;;;;;;;;4994209;28;20061;-79
2022/03/19 13:19:06;;;;;;;21.52;13.50;;;;;;;;;;4997254;28;20069;-79
2022/03/19 13:21:35;;;;;;;21.55;15.18;;;;;;;;;;4997363;28;20156;-79
2022/03/19 13:24:02;;;;;;;19.30;13.48;;;;;;;;;;4999957;28;20054;-81
2022/03/19 13:26:30;;;;;;;23.48;15.23;;;;;;;;;;4985405;28;20088;-83
2022/03/19 13:29:03;;;;;;;20.77;14.15;;;;;;;;;;5001816;28;20088;-84
2022/03/19 13:31:34;;;;;;;23.42;14.88;;;;;;;;;;5002871;28;20042;-84
2022/03/19 13:34:02;;;;;;;22.38;15.40;;;;;;;;;;5002800;28;20061;-84
2022/03/19 13:36:29;;;;;;;21.30;14.80;;;;;;;;;;5009450;28;20044;-84
2022/03/19 13:38:58;;;;;;;21.83;15.23;;;;;;;;;;5019584;28;20502;-81
2022/03/19 13:41:25;;;;;;;23.50;14.65;;;;;;;;;;5011330;28;20046;-83
2022/03/19 13:43:52;;;;;;;19.25;14.80;;;;;;;;;;5009308;28;20085;-83
2022/03/19 13:46:20;;;;;;;20.75;13.98;;;;;;;;;;4998798;28;20088;-82
2022/03/19 13:48:49;;;;;;;22.60;14.88;;;;;;;;;;5014126;28;20078;-83
2022/03/19 13:51:16;;;;;;;23.85;14.90;;;;;;;;;;5006019;28;20034;-79
2022/03/19 13:53:44;;;;;;;21.23;14.68;;;;;;;;;;5008565;28;20457;-79
2022/03/19 13:56:12;;;;;;;20.88;14.65;;;;;;;;;;4996500;28;20094;-81
2022/03/19 13:58:39;;;;;;;22.98;15.05;;;;;;;;;;4992650;28;20070;-79
2022/03/19 14:01:13;;;;;;;20.70;13.52;;;;;;;;;;4995688;28;20058;-79
2022/03/19 14:03:42;;;;;;;19.85;14.48;;;;;;;;;;4990092;28;20050;-80
2022/03/19 14:06:10;;;;;;;22.10;14.02;;;;;;;;;;4993289;28;20078;-80
2022/03/19 14:08:39;;;;;;;23.85;15.35;;;;;;;;;;5002852;28;20053;-81
2022/03/19 14:11:13;;;;;;;24.60;15.30;;;;;;;;;;4999267;28;20107;-81
2022/03/19 14:13:43;;;;;;;20.45;14.48;;;;;;;;;;4997731;28;20116;-81
2022/03/19 14:16:11;;;;;;;24.95;13.65;;;;;;;;;;5003195;28;20052;-83
2022/03/19 14:18:40;;;;;;;23.25;14.45;;;;;;;;;;5000900;28;20069;-82
2022/03/19 14:21:09;;;;;;;20.42;13.82;;;;;;;;;;4999461;28;20041;-81
2022/03/19 14:23:37;;;;;;;22.83;13.75;;;;;;;;;;5002581;28;20078;-79
2022/03/19 14:26:06;;;;;;;22.73;13.90;;;;;;;;;;5001653;28;20040;-82
2022/03/19 14:28:35;;;;;;;21.75;14.80;;;;;;;;;;4998021;28;20065;-80
2022/03/19 14:31:02;;;;;;;23.77;14.15;;;;;;;;;;4992712;28;20065;-79
2022/03/19 14:33:31;;;;;;;21.17;13.65;;;;;;;;;;4974466;28;20046;-79
2022/03/19 14:35:59;;;;;;;22.40;14.80;;;;;;;;;;5008572;28;20038;-79
2022/03/19 14:38:27;;;;;;;20.92;13.55;;;;;;;;;;5012603;28;20034;-79
2022/03/19 14:40:55;;;;;;;22.83;14.32;;;;;;;;;;5000824;28;20481;-81